< < Back
Terminal Aerodrome Forecast


Current Version              Previous Versions:   1  2  3  4  5  6  7  8  9  

Terminal Aerodrome Forecast

421
FTUS44 KMOB 211700
TAFPNS
TAF
KPNS 211720Z 2118/2218 10009KT P6SM FEW035
     FM220300 VRB03KT P6SM SKC=



Latest METAR

481
SAUS70 KWBC 220000 RRG
MTRPNS
METAR KPNS 212353Z 18005KT 10SM CLR 24/19 A2998 RMK AO2 SLP153 T02440194
10289 20244 52005


USA.gov is the U.S. government's official web portal to all federal, state and local government web resources and services.